DEAGZ EDDG-ZZZ
Flight info
| Callsign | DEAGZ |
|---|---|
| Flight time | N/A |
| Altitude | |
| Route | |
| Aircraft | C152 |
Departure
| Time | 2026-04-22 18:55 |
|---|---|
| Airport | Münster Osnabrück Airport (EDDG) |
Arrival
| Time | N/A |
|---|---|
| Airport | ZZZ |
| Time | Latitude | Longitude | Altitude | Speed | Heading |
|---|---|---|---|---|---|
| 2026-04-22 18:45 | 52.13215 | 7.68827 | 161 ft | 0 kts | 162° |
| 2026-04-22 18:46 | 52.13213 | 7.68828 | 161 ft | 0 kts | 161° |
| 2026-04-22 18:50 | 52.13204 | 7.68846 | 161 ft | 5 kts | 70° |
| 2026-04-22 18:50 | 52.13235 | 7.68931 | 160 ft | 12 kts | 20° |
| 2026-04-22 18:50 | 52.13319 | 7.68864 | 159 ft | 14 kts | 329° |
| 2026-04-22 18:51 | 52.13387 | 7.68943 | 160 ft | 21 kts | 68° |
| 2026-04-22 18:51 | 52.13455 | 7.69252 | 160 ft | 30 kts | 67° |
| 2026-04-22 18:51 | 52.13511 | 7.69532 | 161 ft | 24 kts | 70° |
| 2026-04-22 18:51 | 52.13579 | 7.69849 | 159 ft | 29 kts | 72° |
| 2026-04-22 18:52 | 52.13660 | 7.70031 | 159 ft | 18 kts | 18° |
| 2026-04-22 18:52 | 52.13691 | 7.70035 | 158 ft | 6 kts | 346° |
| 2026-04-22 18:52 | 52.13703 | 7.70030 | 158 ft | 0 kts | 342° |
| 2026-04-22 18:52 | 52.13724 | 7.70019 | 158 ft | 6 kts | 342° |
| 2026-04-22 18:53 | 52.13766 | 7.69968 | 159 ft | 9 kts | 292° |
| 2026-04-22 18:53 | 52.13753 | 7.69850 | 162 ft | 15 kts | 251° |
| 2026-04-22 18:53 | 52.13705 | 7.69620 | 163 ft | 0 kts | 252° |
| 2026-04-22 18:54 | 52.13692 | 7.69559 | 165 ft | 27 kts | 252° |
| 2026-04-22 18:54 | 52.13577 | 7.69042 | 229 ft | 58 kts | 255° |
| 2026-04-22 18:54 | 52.13444 | 7.68449 | 427 ft | 52 kts | 256° |
| 2026-04-22 18:55 | 52.13331 | 7.67872 | 614 ft | 59 kts | 257° |
| 2026-04-22 18:55 | 52.13163 | 7.67177 | 737 ft | 67 kts | 246° |
| 2026-04-22 18:55 | 52.12972 | 7.66487 | 895 ft | 69 kts | 252° |
| 2026-04-22 18:55 | 52.12868 | 7.65700 | 1011 ft | 74 kts | 296° |
| 2026-04-22 18:56 | 52.13260 | 7.65175 | 1130 ft | 76 kts | 331° |
| 2026-04-22 18:56 | 52.13709 | 7.64714 | 1291 ft | 74 kts | 340° |
| 2026-04-22 18:56 | 52.14193 | 7.64864 | 1309 ft | 84 kts | 56° |
| 2026-04-22 18:56 | 52.14375 | 7.65716 | 1511 ft | 75 kts | 67° |
| 2026-04-22 18:57 | 52.14533 | 7.66582 | 1506 ft | 90 kts | 71° |
| 2026-04-22 18:57 | 52.14699 | 7.67674 | 1333 ft | 103 kts | 76° |
| 2026-04-22 18:57 | 52.14813 | 7.68873 | 1125 ft | 111 kts | 82° |
| 2026-04-22 18:57 | 52.14880 | 7.70071 | 1071 ft | 104 kts | 82° |
| 2026-04-22 18:58 | 52.14963 | 7.71198 | 1017 ft | 104 kts | 82° |
| 2026-04-22 18:58 | 52.14721 | 7.72193 | 831 ft | 109 kts | 173° |
| 2026-04-22 18:58 | 52.14062 | 7.72080 | 542 ft | 91 kts | 226° |
| 2026-04-22 18:58 | 52.13989 | 7.71220 | 317 ft | 66 kts | 283° |
| 2026-04-22 18:59 | 52.13890 | 7.70471 | 315 ft | 68 kts | 251° |
| 2026-04-22 18:59 | 52.13719 | 7.69716 | 213 ft | 73 kts | 255° |
| 2026-04-22 18:59 | 52.13593 | 7.69077 | 165 ft | 50 kts | 256° |
| 2026-04-22 18:59 | 52.13439 | 7.68343 | 175 ft | 84 kts | 253° |
| 2026-04-22 19:00 | 52.13277 | 7.67582 | 515 ft | 60 kts | 254° |
| 2026-04-22 19:00 | 52.13151 | 7.66996 | 726 ft | 49 kts | 251° |
| 2026-04-22 19:00 | 52.13022 | 7.66339 | 686 ft | 66 kts | 256° |
| 2026-04-22 19:00 | 52.12873 | 7.65567 | 858 ft | 68 kts | 251° |
| 2026-04-22 19:01 | 52.13054 | 7.64918 | 846 ft | 82 kts | 332° |
| 2026-04-22 19:01 | 52.13536 | 7.64433 | 1005 ft | 83 kts | 335° |
| 2026-04-22 19:01 | 52.13935 | 7.64602 | 1006 ft | 88 kts | 76° |
| 2026-04-22 19:01 | 52.14054 | 7.65604 | 1051 ft | 88 kts | 71° |
| 2026-04-22 19:02 | 52.14224 | 7.66574 | 1144 ft | 86 kts | 72° |
| 2026-04-22 19:02 | 52.14390 | 7.67532 | 1151 ft | 93 kts | 71° |
| 2026-04-22 19:02 | 52.14570 | 7.68596 | 1063 ft | 100 kts | 74° |
| 2026-04-22 19:02 | 52.14715 | 7.69726 | 1009 ft | 101 kts | 78° |
| 2026-04-22 19:03 | 52.14846 | 7.70861 | 953 ft | 99 kts | 76° |
| 2026-04-22 19:03 | 52.14956 | 7.71858 | 1110 ft | 89 kts | 79° |
| 2026-04-22 19:03 | 52.14493 | 7.72424 | 1020 ft | 105 kts | 172° |
| 2026-04-22 19:03 | 52.14087 | 7.71839 | 863 ft | 90 kts | 272° |
| 2026-04-22 19:04 | 52.14001 | 7.70990 | 529 ft | 71 kts | 257° |
| 2026-04-22 19:04 | 52.13865 | 7.70280 | 357 ft | 65 kts | 250° |
| 2026-04-22 19:04 | 52.13703 | 7.69595 | 216 ft | 60 kts | 255° |
| 2026-04-22 19:04 | 52.13598 | 7.69042 | 165 ft | 54 kts | 251° |
| 2026-04-22 19:05 | 52.13444 | 7.68325 | 271 ft | 71 kts | 253° |
| 2026-04-22 19:05 | 52.13285 | 7.67607 | 517 ft | 65 kts | 251° |
| 2026-04-22 19:05 | 52.13120 | 7.66869 | 645 ft | 74 kts | 251° |
| 2026-04-22 19:05 | 52.12952 | 7.66095 | 862 ft | 65 kts | 253° |
| 2026-04-22 19:06 | 52.12788 | 7.65295 | 956 ft | 85 kts | 256° |
| 2026-04-22 19:06 | 52.12633 | 7.64306 | 1068 ft | 91 kts | 262° |
| 2026-04-22 19:06 | 52.12837 | 7.63729 | 1132 ft | 81 kts | 353° |
| 2026-04-22 19:07 | 52.13726 | 7.63347 | 1383 ft | 80 kts | 345° |
| 2026-04-22 19:07 | 52.14219 | 7.63015 | 1553 ft | 78 kts | 345° |
| 2026-04-22 19:07 | 52.14577 | 7.63391 | 1559 ft | 81 kts | 70° |
| 2026-04-22 19:07 | 52.14708 | 7.64277 | 1680 ft | 82 kts | 73° |
| 2026-04-22 19:08 | 52.14829 | 7.65219 | 1722 ft | 88 kts | 73° |
| 2026-04-22 19:08 | 52.14972 | 7.66194 | 1788 ft | 87 kts | 72° |
| 2026-04-22 19:08 | 52.15124 | 7.67131 | 1858 ft | 87 kts | 71° |
| 2026-04-22 19:08 | 52.15280 | 7.68089 | 1892 ft | 90 kts | 73° |
| 2026-04-22 19:09 | 52.15416 | 7.69121 | 1862 ft | 95 kts | 75° |
| 2026-04-22 19:09 | 52.15554 | 7.70218 | 1820 ft | 95 kts | 75° |
| 2026-04-22 19:09 | 52.15692 | 7.71315 | 1717 ft | 99 kts | 75° |
| 2026-04-22 19:09 | 52.15811 | 7.72442 | 1543 ft | 109 kts | 79° |
| 2026-04-22 19:10 | 52.15295 | 7.73037 | 1495 ft | 113 kts | 168° |
| 2026-04-22 19:10 | 52.14529 | 7.73178 | 1413 ft | 116 kts | 180° |
| 2026-04-22 19:10 | 52.14120 | 7.72190 | 852 ft | 113 kts | 265° |
| 2026-04-22 19:10 | 52.13954 | 7.70813 | 404 ft | 122 kts | 251° |
| 2026-04-22 19:11 | 52.13681 | 7.69507 | 192 ft | 119 kts | 253° |
| 2026-04-22 19:11 | 52.13426 | 7.68277 | 212 ft | 110 kts | 253° |
| 2026-04-22 19:11 | 52.13168 | 7.67101 | 196 ft | 102 kts | 250° |
| 2026-04-22 19:11 | 52.12758 | 7.66835 | 589 ft | 71 kts | 162° |
| 2026-04-22 19:12 | 52.12289 | 7.67039 | 787 ft | 69 kts | 159° |
| 2026-04-22 19:12 | 52.11825 | 7.67305 | 951 ft | 74 kts | 153° |
| 2026-04-22 19:12 | 52.11437 | 7.67871 | 1017 ft | 80 kts | 95° |
| 2026-04-22 19:12 | 52.11544 | 7.68737 | 1075 ft | 82 kts | 68° |
| 2026-04-22 19:13 | 52.11790 | 7.69635 | 1054 ft | 93 kts | 62° |
| 2026-04-22 19:13 | 52.12080 | 7.70562 | 1088 ft | 93 kts | 59° |
| 2026-04-22 19:13 | 52.12369 | 7.71525 | 1088 ft | 92 kts | 66° |
| 2026-04-22 19:13 | 52.12587 | 7.72497 | 1169 ft | 90 kts | 67° |
| 2026-04-22 19:14 | 52.12887 | 7.73379 | 1157 ft | 91 kts | 22° |
| 2026-04-22 19:14 | 52.13508 | 7.73285 | 1099 ft | 98 kts | 347° |
| 2026-04-22 19:14 | 52.14178 | 7.72987 | 1069 ft | 98 kts | 348° |
| 2026-04-22 19:14 | 52.14374 | 7.72117 | 895 ft | 91 kts | 244° |
| 2026-04-22 19:15 | 52.14032 | 7.71061 | 349 ft | 109 kts | 249° |
| 2026-04-22 19:15 | 52.13816 | 7.70098 | 293 ft | 68 kts | 250° |
| 2026-04-22 19:15 | 52.13673 | 7.69480 | 174 ft | 55 kts | 256° |
| 2026-04-22 19:15 | 52.13577 | 7.69007 | 163 ft | 38 kts | 253° |
| 2026-04-22 19:16 | 52.13495 | 7.68628 | 160 ft | 33 kts | 253° |
| 2026-04-22 19:16 | 52.13428 | 7.68317 | 164 ft | 21 kts | 244° |
| 2026-04-22 19:16 | 52.13355 | 7.68271 | 164 ft | 13 kts | 168° |
| 2026-04-22 19:16 | 52.13264 | 7.68331 | 163 ft | 13 kts | 131° |
| 2026-04-22 19:17 | 52.13289 | 7.68480 | 163 ft | 19 kts | 69° |
| 2026-04-22 19:17 | 52.13341 | 7.68724 | 162 ft | 27 kts | 71° |
| 2026-04-22 19:17 | 52.13329 | 7.68902 | 159 ft | 9 kts | 163° |
| 2026-04-22 19:17 | 52.13263 | 7.68974 | 160 ft | 12 kts | 88° |
| 2026-04-22 19:18 | 52.13275 | 7.69081 | 160 ft | 0 kts | 135° |
| 2026-04-22 19:18 | 52.13269 | 7.69085 | 160 ft | 1 kts | 167° |
| 2026-04-22 19:18 | 52.13268 | 7.69085 | 160 ft | 0 kts | 167° |